Time;durP1;ratioP1;P1;durP2;ratioP2;P2;SDS_P1;SDS_P2;PMS_P1;PMS_P2;Temp;Humidity;BMP_temperature;BMP_pressure;BME280_temperature;BME280_humidity;BME280_pressure;Samples;Min_cycle;Max_cycle;Signal;HPM_P1;HPM_P2
2022/10/09 00:01:28;;;;;;;8.50;3.60;;;;;;;8.35;100.00;97078.81;5047822;28;20227;-71
2022/10/09 00:03:57;;;;;;;6.13;3.03;;;;;;;8.25;100.00;97080.63;5047794;28;20201;-72
2022/10/09 00:06:25;;;;;;;5.30;3.40;;;;;;;8.24;100.00;97080.78;5047978;28;20635;-71
2022/10/09 00:08:52;;;;;;;7.63;3.53;;;;;;;8.12;100.00;97072.22;5047663;28;20221;-71
2022/10/09 00:11:21;;;;;;;8.43;3.30;;;;;;;8.31;100.00;97076.59;5047399;28;20224;-71
2022/10/09 00:13:47;;;;;;;5.60;3.37;;;;;;;8.28;100.00;97072.47;5046717;28;20205;-71
2022/10/09 00:16:15;;;;;;;5.90;3.07;;;;;;;8.36;100.00;97074.38;5048399;28;20215;-71
2022/10/09 00:18:44;;;;;;;8.63;3.67;;;;;;;8.06;100.00;97078.03;5048051;28;20486;-71
2022/10/09 00:21:22;;;;;;;9.23;3.00;;;;;;;8.13;100.00;97067.78;5046836;28;20241;-71
2022/10/09 00:23:49;;;;;;;7.30;3.47;;;;;;;8.06;100.00;97075.41;5047073;28;20205;-71
2022/10/09 00:26:16;;;;;;;7.70;3.87;;;;;;;8.20;100.00;97080.22;5047327;28;20464;-71
2022/10/09 00:28:43;;;;;;;5.97;3.67;;;;;;;8.16;100.00;97078.88;5047411;28;20221;-71
2022/10/09 00:31:11;;;;;;;7.93;3.70;;;;;;;8.30;100.00;97081.03;5047003;28;20224;-71
2022/10/09 00:33:38;;;;;;;7.90;3.63;;;;;;;8.37;100.00;97081.28;5046649;28;20571;-71
2022/10/09 00:36:08;;;;;;;6.03;3.63;;;;;;;8.23;100.00;97079.13;5047114;28;20239;-71
2022/10/09 00:38:35;;;;;;;8.20;3.67;;;;;;;8.22;100.00;97074.84;5046826;28;20208;-71
2022/10/09 00:41:01;;;;;;;11.30;5.27;;;;;;;8.17;100.00;97074.44;5046265;28;20316;-71
2022/10/09 00:43:43;;;;;;;8.73;4.90;;;;;;;8.28;100.00;97075.09;5046009;28;20201;-71
2022/10/09 00:46:20;;;;;;;7.33;4.40;;;;;;;8.28;100.00;97077.72;5046356;28;20205;-71
2022/10/09 00:48:52;;;;;;;12.90;5.67;;;;;;;8.24;100.00;97070.28;5045916;28;20235;-71
2022/10/09 00:51:20;;;;;;;10.93;4.87;;;;;;;8.19;100.00;97075.13;5045861;28;20227;-71
2022/10/09 00:53:47;;;;;;;13.23;5.57;;;;;;;8.12;100.00;97069.59;5045121;28;20638;-71
2022/10/09 00:56:13;;;;;;;9.30;5.30;;;;;;;8.09;100.00;97069.84;5045292;28;20208;-71
2022/10/09 00:58:40;;;;;;;10.87;5.20;;;;;;;8.21;100.00;97062.66;5045389;28;20629;-71
2022/10/09 01:01:06;;;;;;;11.60;5.00;;;;;;;8.23;100.00;97053.69;5045639;28;20231;-71
2022/10/09 01:03:33;;;;;;;13.93;5.43;;;;;;;8.19;100.00;97062.00;5045184;28;20665;-71
2022/10/09 01:06:08;;;;;;;10.23;4.60;;;;;;;8.16;100.00;97057.00;5045633;28;20201;-71
2022/10/09 01:08:39;;;;;;;11.00;4.97;;;;;;;7.98;100.00;97050.81;5044753;28;20233;-71
2022/10/09 01:11:16;;;;;;;9.60;5.20;;;;;;;7.77;100.00;97051.97;5045517;28;20233;-71
2022/10/09 01:13:50;;;;;;;10.73;5.30;;;;;;;7.87;100.00;97048.38;5044780;28;20204;-71
2022/10/09 01:16:24;;;;;;;8.33;4.60;;;;;;;7.98;100.00;97037.69;5045276;28;20213;-71
2022/10/09 01:18:57;;;;;;;12.67;4.57;;;;;;;7.87;100.00;97040.50;5045373;28;20218;-71
2022/10/09 01:21:28;;;;;;;8.43;4.73;;;;;;;7.67;100.00;97036.22;5045203;28;20232;-71
2022/10/09 01:24:19;;;;;;;9.93;4.33;;;;;;;7.74;100.00;97029.47;5044229;28;20209;-71
2022/10/09 01:27:05;;;;;;;5.27;3.37;;;;;;;7.82;100.00;97023.53;5044834;28;20214;-71
2022/10/09 01:29:35;;;;;;;6.37;3.37;;;;;;;7.68;100.00;97027.41;5044703;28;20599;-71
2022/10/09 01:32:03;;;;;;;5.33;3.03;;;;;;;7.64;100.00;97023.41;5044429;28;20221;-71
2022/10/09 01:34:32;;;;;;;5.23;3.37;;;;;;;7.65;100.00;97014.59;5044086;28;20201;-71
2022/10/09 01:36:59;;;;;;;8.73;3.50;;;;;;;7.62;100.00;97014.84;5045305;28;20201;-71
2022/10/09 01:39:28;;;;;;;4.63;2.90;;;;;;;7.51;100.00;97017.63;5044895;28;20595;-71
2022/10/09 01:41:57;;;;;;;5.67;3.17;;;;;;;7.43;100.00;97012.25;5044127;28;20593;-71
2022/10/09 01:44:27;;;;;;;8.27;3.90;;;;;;;7.49;100.00;97013.50;5044028;28;20304;-71
2022/10/09 01:46:53;;;;;;;5.90;3.13;;;;;;;7.45;100.00;97018.19;5044498;28;20288;-71
2022/10/09 01:49:42;;;;;;;5.17;2.67;;;;;;;7.46;100.00;97016.41;5007461;28;1088127;-71
2022/10/09 01:52:26;;;;;;;4.83;2.60;;;;;;;7.41;100.00;97013.38;5045290;28;20587;-71
2022/10/09 01:55:21;;;;;;;4.03;2.70;;;;;;;7.30;100.00;97008.25;5045596;28;20281;-71
2022/10/09 01:57:53;;;;;;;5.87;3.33;;;;;;;7.26;100.00;97002.44;5045321;28;20201;-71
2022/10/09 02:00:21;;;;;;;5.83;3.70;;;;;;;7.13;100.00;97001.09;5045116;28;20592;-71
2022/10/09 02:02:48;;;;;;;7.80;3.47;;;;;;;7.27;100.00;96995.44;5044529;28;20205;-71
2022/10/09 02:05:19;;;;;;;5.03;3.17;;;;;;;7.22;100.00;96994.16;5045070;28;20696;-71
2022/10/09 02:07:45;;;;;;;5.87;3.90;;;;;;;7.17;100.00;96988.53;5044614;28;20201;-71
2022/10/09 02:10:15;;;;;;;6.53;3.40;;;;;;;7.25;100.00;96999.16;5045212;28;20201;-71
2022/10/09 02:12:45;;;;;;;6.07;3.73;;;;;;;7.20;100.00;96983.00;5044414;28;20207;-71
2022/10/09 02:15:13;;;;;;;6.90;3.90;;;;;;;7.11;100.00;96984.66;5045055;28;20662;-71
2022/10/09 02:17:46;;;;;;;10.90;4.33;;;;;;;7.12;100.00;96988.13;5045174;28;20672;-71
2022/10/09 02:20:18;;;;;;;6.33;3.77;;;;;;;7.15;100.00;96982.59;5044428;28;20205;-71
2022/10/09 02:22:46;;;;;;;5.93;3.90;;;;;;;7.08;100.00;96977.09;5043829;28;20207;-71
2022/10/09 02:25:13;;;;;;;10.13;4.07;;;;;;;7.14;100.00;96980.94;5044682;28;20211;-71
2022/10/09 02:27:40;;;;;;;7.30;4.10;;;;;;;7.11;100.00;96976.78;5044388;28;20193;-71
2022/10/09 02:30:08;;;;;;;6.63;4.00;;;;;;;7.16;100.00;96982.47;5044101;28;20695;-71
2022/10/09 02:32:36;;;;;;;5.10;3.03;;;;;;;7.10;100.00;96983.00;5043787;28;20201;-71
2022/10/09 02:35:03;;;;;;;6.97;4.13;;;;;;;7.03;100.00;96984.53;5044329;28;20298;-71
2022/10/09 02:37:30;;;;;;;9.30;3.27;;;;;;;7.02;100.00;96972.38;5044402;28;20288;-71
2022/10/09 02:39:56;;;;;;;9.23;4.20;;;;;;;6.91;100.00;96974.31;5044231;28;20201;-71
2022/10/09 02:42:24;;;;;;;7.20;3.93;;;;;;;7.02;100.00;96976.81;5043580;28;20205;-71
2022/10/09 02:44:51;;;;;;;7.10;4.40;;;;;;;7.02;100.00;96976.81;5043823;28;20768;-71
2022/10/09 02:47:17;;;;;;;12.40;4.10;;;;;;;6.98;100.00;96975.44;5044076;28;20483;-71
2022/10/09 02:49:45;;;;;;;7.10;4.10;;;;;;;7.09;100.00;96967.41;5043826;28;20255;-71
2022/10/09 02:52:12;;;;;;;9.80;5.27;;;;;;;6.98;100.00;96959.72;5043114;28;20226;-71
2022/10/09 02:54:41;;;;;;;10.90;4.63;;;;;;;6.99;100.00;96961.38;5043148;28;20568;-71
2022/10/09 02:57:08;;;;;;;9.17;4.63;;;;;;;6.94;100.00;96968.81;5041431;28;20704;-71
2022/10/09 02:59:34;;;;;;;8.67;5.27;;;;;;;7.04;100.00;96959.97;5043419;28;20677;-71
2022/10/09 03:02:01;;;;;;;11.10;4.50;;;;;;;6.94;100.00;96963.56;5043374;28;20713;-71
2022/10/09 03:04:27;;;;;;;7.00;4.70;;;;;;;6.87;100.00;96958.06;5042615;28;20674;-71
2022/10/09 03:06:55;;;;;;;9.13;4.93;;;;;;;6.89;100.00;96963.97;5043333;28;20212;-71
2022/10/09 03:09:22;;;;;;;9.90;5.30;;;;;;;6.80;100.00;96956.13;5043308;28;20685;-71
2022/10/09 03:11:49;;;;;;;9.90;4.90;;;;;;;6.84;100.00;96957.50;5042862;28;20225;-71
2022/10/09 03:14:15;;;;;;;9.37;4.90;;;;;;;6.96;100.00;96956.38;5042895;28;20287;-71
2022/10/09 03:16:42;;;;;;;7.20;4.37;;;;;;;6.76;100.00;96949.50;5043022;28;20201;-71
2022/10/09 03:19:08;;;;;;;6.47;4.23;;;;;;;6.68;100.00;96952.78;5042974;28;20201;-71
2022/10/09 03:21:35;;;;;;;7.77;4.67;;;;;;;6.67;100.00;96950.31;5043549;28;20227;-71
2022/10/09 03:24:03;;;;;;;12.93;5.40;;;;;;;6.72;100.00;96943.69;5042810;28;20211;-71
2022/10/09 03:26:29;;;;;;;8.07;4.93;;;;;;;6.62;100.00;96946.44;5042710;28;20205;-71
2022/10/09 03:28:56;;;;;;;8.23;4.30;;;;;;;6.68;100.00;96955.41;5043223;28;20235;-71
2022/10/09 03:31:25;;;;;;;9.50;4.73;;;;;;;6.75;100.00;96950.47;5042519;28;20264;-71
2022/10/09 03:33:51;;;;;;;10.00;5.13;;;;;;;6.82;100.00;96949.78;5042480;28;20634;-71
2022/10/09 03:36:18;;;;;;;7.50;5.10;;;;;;;6.80;100.00;96948.25;5043048;28;20216;-71
2022/10/09 03:38:44;;;;;;;7.37;4.50;;;;;;;6.95;100.00;96952.09;5042819;28;20201;-71
2022/10/09 03:41:12;;;;;;;12.73;5.17;;;;;;;7.00;100.00;96953.38;5042777;28;20228;-71
2022/10/09 03:43:39;;;;;;;8.83;4.97;;;;;;;6.99;100.00;96954.31;5042125;28;20208;-71
2022/10/09 03:46:07;;;;;;;7.23;4.60;;;;;;;6.97;100.00;96955.44;5042618;28;20205;-71
2022/10/09 03:48:34;;;;;;;10.47;4.77;;;;;;;6.94;100.00;96956.53;5042525;28;20217;-71
2022/10/09 03:51:00;;;;;;;7.77;4.27;;;;;;;6.96;100.00;96948.53;5042368;28;20247;-71
2022/10/09 03:53:27;;;;;;;6.77;4.67;;;;;;;6.84;100.00;96947.03;5042305;28;20201;-71
2022/10/09 03:55:54;;;;;;;7.60;4.50;;;;;;;6.74;100.00;96951.41;5042770;28;20205;-71
2022/10/09 03:58:22;;;;;;;6.17;4.27;;;;;;;6.64;100.00;96955.81;5042527;28;20212;-71
2022/10/09 04:00:50;;;;;;;7.97;4.70;;;;;;;6.70;100.00;96950.84;5042539;28;20278;-71
2022/10/09 04:03:17;;;;;;;9.23;5.03;;;;;;;6.60;100.00;96943.97;5041623;28;20208;-71
2022/10/09 04:05:43;;;;;;;8.33;4.87;;;;;;;6.64;100.00;96953.19;5042218;28;20312;-71
2022/10/09 04:08:10;;;;;;;9.67;5.17;;;;;;;6.58;100.00;96958.16;5042580;28;20574;-71
2022/10/09 04:10:37;;;;;;;7.90;4.77;;;;;;;6.62;100.00;96956.91;5042773;28;20220;-71
2022/10/09 04:13:03;;;;;;;6.70;4.67;;;;;;;6.49;100.00;96957.19;5042006;28;20460;-71
2022/10/09 04:15:31;;;;;;;7.77;4.63;;;;;;;6.45;100.00;96958.38;5042574;28;20789;-71
2022/10/09 04:17:58;;;;;;;7.57;4.77;;;;;;;6.51;100.00;96954.44;5042628;28;20217;-71
2022/10/09 04:20:24;;;;;;;6.83;4.50;;;;;;;6.49;100.00;96959.81;5042056;28;20228;-71
2022/10/09 04:22:51;;;;;;;7.23;4.27;;;;;;;6.40;100.00;96955.38;5041924;28;20205;-71
2022/10/09 04:25:17;;;;;;;8.50;5.00;;;;;;;6.25;100.00;96953.25;5042649;28;20205;-71
2022/10/09 04:27:44;;;;;;;7.33;4.83;;;;;;;6.26;100.00;96955.75;5042305;28;20206;-71
2022/10/09 04:30:11;;;;;;;7.73;4.93;;;;;;;6.43;100.00;96956.88;5042429;28;20228;-71
2022/10/09 04:32:39;;;;;;;8.50;5.03;;;;;;;6.62;100.00;96952.53;5041311;28;20209;-71
2022/10/09 04:35:06;;;;;;;11.80;4.73;;;;;;;6.56;100.00;96955.66;5041955;28;20243;-71
2022/10/09 04:37:34;;;;;;;8.90;4.93;;;;;;;6.58;100.00;96956.38;5042259;28;20674;-71
2022/10/09 04:40:00;;;;;;;8.90;4.63;;;;;;;6.56;100.00;96950.44;5042111;28;20252;-71
2022/10/09 04:42:27;;;;;;;8.10;4.87;;;;;;;6.57;100.00;96941.63;5043249;28;20810;-71
2022/10/09 04:44:53;;;;;;;8.00;5.03;;;;;;;6.59;100.00;96947.53;5045883;28;20205;-71
2022/10/09 04:47:20;;;;;;;8.67;4.40;;;;;;;6.61;100.00;96944.81;5045707;28;20201;-71
2022/10/09 04:49:48;;;;;;;7.40;4.30;;;;;;;6.66;100.00;96946.03;5045432;28;20255;-71
2022/10/09 04:52:14;;;;;;;7.33;4.20;;;;;;;6.66;100.00;96946.03;5045185;28;20311;-71
2022/10/09 04:54:41;;;;;;;5.77;3.77;;;;;;;6.65;100.00;96941.75;5045650;28;20204;-71
2022/10/09 04:57:08;;;;;;;5.67;3.63;;;;;;;6.57;100.00;96951.25;5045632;28;20208;-71
2022/10/09 04:59:34;;;;;;;7.37;4.20;;;;;;;6.56;100.00;96944.38;5045323;28;20193;-71
2022/10/09 05:02:01;;;;;;;6.30;4.07;;;;;;;6.52;100.00;96951.66;5045967;28;20243;-71
2022/10/09 05:04:27;;;;;;;5.23;3.60;;;;;;;6.53;100.00;96942.00;5044830;28;20216;-71
2022/10/09 05:06:55;;;;;;;6.67;3.90;;;;;;;6.46;100.00;96938.28;5045599;28;20205;-71
2022/10/09 05:09:22;;;;;;;7.17;3.57;;;;;;;6.47;100.00;96932.91;5045344;28;20225;-71
2022/10/09 05:11:48;;;;;;;6.07;3.23;;;;;;;6.38;100.00;96928.50;5045025;28;20244;-71
2022/10/09 05:14:15;;;;;;;8.33;3.77;;;;;;;6.26;100.00;96936.59;5044455;28;20799;-71
2022/10/09 05:16:41;;;;;;;6.73;4.13;;;;;;;6.22;100.00;96937.81;5045369;28;20212;-71
2022/10/09 05:19:08;;;;;;;7.47;3.87;;;;;;;6.19;100.00;96936.28;5044840;28;20669;-71
2022/10/09 05:21:35;;;;;;;7.33;4.33;;;;;;;6.22;100.00;96933.44;5044997;28;20583;-71
2022/10/09 05:24:03;;;;;;;11.47;5.00;;;;;;;6.21;100.00;96931.75;5044604;28;20343;-71
2022/10/09 05:26:30;;;;;;;11.53;5.63;;;;;;;6.16;100.00;96925.25;5044708;28;20205;-71
2022/10/09 05:28:57;;;;;;;12.43;5.80;;;;;;;6.11;100.00;96927.47;5044603;28;20232;-71
2022/10/09 05:31:25;;;;;;;13.70;5.87;;;;;;;6.25;100.00;96927.91;5044760;28;20217;-71
2022/10/09 05:33:52;;;;;;;9.77;5.43;;;;;;;6.18;100.00;96923.34;5044270;28;20207;-71
2022/10/09 05:36:19;;;;;;;14.43;6.80;;;;;;;6.15;100.00;96929.66;5044556;28;20201;-71
2022/10/09 05:38:46;;;;;;;27.43;8.17;;;;;;;6.13;100.00;96931.59;5044746;28;20205;-71
2022/10/09 05:41:16;;;;;;;29.30;8.83;;;;;;;6.27;100.00;96933.00;5044623;28;20221;-71
2022/10/09 05:43:44;;;;;;;28.27;7.87;;;;;;;6.25;100.00;96921.84;5043886;28;20197;-71
2022/10/09 05:46:12;;;;;;;30.13;6.93;;;;;;;6.17;100.00;96929.53;5044731;28;20204;-71
2022/10/09 05:48:41;;;;;;;20.33;6.40;;;;;;;6.28;100.00;96927.63;5044423;28;20669;-71
2022/10/09 05:51:13;;;;;;;19.53;5.93;;;;;;;6.34;100.00;96919.25;5044232;28;20236;-71
2022/10/09 05:53:40;;;;;;;36.10;6.37;;;;;;;6.29;100.00;96918.84;5042403;28;20669;-71
2022/10/09 05:56:12;;;;;;;16.70;5.70;;;;;;;6.46;100.00;96926.03;5043976;28;20448;-71
2022/10/09 05:58:40;;;;;;;25.67;6.87;;;;;;;6.45;100.00;96916.50;5044349;28;20204;-71
2022/10/09 06:01:07;;;;;;;22.03;6.30;;;;;;;6.42;100.00;96922.03;5043911;28;20225;-71
2022/10/09 06:03:34;;;;;;;18.70;5.70;;;;;;;6.49;100.00;96917.91;5043741;28;20294;-71
2022/10/09 06:06:01;;;;;;;16.97;6.13;;;;;;;6.50;100.00;96911.69;5044080;28;20209;-71
2022/10/09 06:08:27;;;;;;;20.87;6.33;;;;;;;6.51;100.00;96923.81;5043982;28;20563;-71
2022/10/09 06:10:54;;;;;;;27.63;6.37;;;;;;;6.62;100.00;96928.09;5044088;28;20229;-71
2022/10/09 06:13:20;;;;;;;23.33;5.90;;;;;;;6.64;100.00;96927.00;5043025;28;20669;-71
2022/10/09 06:15:53;;;;;;;19.73;6.30;;;;;;;6.78;100.00;96929.22;5044077;28;20216;-71
2022/10/09 06:18:20;;;;;;;23.83;6.43;;;;;;;6.74;100.00;96925.22;5043818;28;20205;-71
2022/10/09 06:20:53;;;;;;;26.40;7.37;;;;;;;6.90;100.00;96930.75;5043927;28;20232;-71
2022/10/09 06:23:20;;;;;;;28.63;6.97;;;;;;;6.83;100.00;96929.63;5042982;28;20566;-71
2022/10/09 06:25:51;;;;;;;19.70;5.80;;;;;;;6.90;100.00;96934.19;5043850;28;20212;-71
2022/10/09 06:28:18;;;;;;;39.07;6.50;;;;;;;6.90;100.00;96941.25;5043618;28;20295;-71
2022/10/09 06:30:44;;;;;;;25.70;6.13;;;;;;;7.03;100.00;96942.59;5043877;28;20220;-71
2022/10/09 06:33:12;;;;;;;42.30;7.10;;;;;;;7.15;100.00;96946.72;5042718;28;20209;-71
2022/10/09 06:35:38;;;;;;;26.43;6.53;;;;;;;7.28;100.00;96945.47;5043321;28;20224;-71
2022/10/09 06:38:05;;;;;;;21.97;6.67;;;;;;;7.28;100.00;96942.88;5043505;28;20212;-71
2022/10/09 06:40:35;;;;;;;13.30;6.63;;;;;;;7.61;100.00;96938.94;5043675;28;20616;-71
2022/10/09 06:43:01;;;;;;;17.07;7.57;;;;;;;7.67;100.00;96944.44;5042706;28;20205;-71
2022/10/09 06:45:28;;;;;;;13.40;7.00;;;;;;;7.67;100.00;96947.03;5043234;28;20496;-71
2022/10/09 06:47:55;;;;;;;20.07;7.93;;;;;;;7.75;100.00;96941.94;5043315;28;20291;-71
2022/10/09 06:50:23;;;;;;;26.50;7.60;;;;;;;7.83;100.00;96949.91;5042756;28;20704;-71
2022/10/09 06:52:50;;;;;;;16.30;7.50;;;;;;;7.75;100.00;96949.81;5042458;28;20418;-71
2022/10/09 06:55:16;;;;;;;15.93;7.93;;;;;;;7.71;100.00;96956.28;5043571;28;20209;-71
2022/10/09 06:57:43;;;;;;;18.13;7.83;;;;;;;7.87;100.00;96956.53;5043169;28;20665;-71
2022/10/09 07:00:11;;;;;;;18.40;7.67;;;;;;;8.06;100.00;96962.53;5042974;28;20208;-72
2022/10/09 07:02:37;;;;;;;18.47;7.80;;;;;;;7.94;100.00;96957.59;5042602;28;20662;-71
2022/10/09 07:05:04;;;;;;;14.67;7.17;;;;;;;8.01;100.00;96961.31;5042587;28;20205;-71
2022/10/09 07:07:32;;;;;;;16.20;7.87;;;;;;;8.16;100.00;96962.50;5043086;28;20205;-71
2022/10/09 07:09:59;;;;;;;16.70;6.97;;;;;;;8.16;100.00;96962.50;5042696;28;20732;-71
2022/10/09 07:12:25;;;;;;;16.37;7.90;;;;;;;8.28;100.00;96961.38;5042668;28;20197;-71
2022/10/09 07:14:52;;;;;;;18.50;7.53;;;;;;;8.31;100.00;96955.81;5042779;28;20209;-71
2022/10/09 07:17:18;;;;;;;17.37;7.27;;;;;;;8.30;100.00;96959.41;5043088;28;20559;-72
2022/10/09 07:19:45;;;;;;;17.77;8.00;;;;;;;8.29;100.00;96963.84;5042995;28;20204;-72
2022/10/09 07:22:11;;;;;;;15.30;7.33;;;;;;;8.43;100.00;96960.72;5042573;28;20232;-72
2022/10/09 07:24:39;;;;;;;15.07;7.40;;;;;;;8.63;100.00;96964.88;5042707;28;20197;-72
2022/10/09 07:27:05;;;;;;;17.50;8.23;;;;;;;8.73;100.00;96970.91;5042645;28;20237;-72
2022/10/09 07:29:32;;;;;;;17.47;7.50;;;;;;;8.96;100.00;96972.13;5042801;28;20706;-72
2022/10/09 07:31:58;;;;;;;15.07;7.37;;;;;;;8.82;100.00;96962.97;5043168;28;20245;-72
2022/10/09 07:34:25;;;;;;;17.70;7.67;;;;;;;8.90;100.00;96959.63;5042063;28;20213;-72
2022/10/09 07:36:52;;;;;;;19.30;8.43;;;;;;;8.92;100.00;96952.38;5042832;28;20208;-72
2022/10/09 07:39:19;;;;;;;20.03;8.30;;;;;;;8.79;100.00;96947.50;5043048;28;20206;-72
2022/10/09 07:41:50;;;;;;;19.43;8.23;;;;;;;9.00;100.00;96955.09;5042146;28;20228;-72
2022/10/09 07:44:16;;;;;;;17.57;8.27;;;;;;;9.05;100.00;96953.69;5042307;28;20205;-72
2022/10/09 07:46:43;;;;;;;20.20;8.60;;;;;;;9.21;100.00;96962.53;5042764;28;20208;-72
2022/10/09 07:49:10;;;;;;;20.47;8.47;;;;;;;9.24;100.00;96950.88;5042365;28;20213;-72
2022/10/09 07:51:36;;;;;;;22.13;8.50;;;;;;;9.28;100.00;96955.69;5043045;28;20228;-72
2022/10/09 07:54:03;;;;;;;17.17;8.30;;;;;;;9.32;100.00;96956.22;5042549;28;20606;-72
2022/10/09 07:56:31;;;;;;;18.07;8.17;;;;;;;9.57;100.00;96955.41;5042975;28;20213;-72
2022/10/09 07:59:00;;;;;;;18.10;7.70;;;;;;;9.56;100.00;96953.75;5042897;28;20197;-72
2022/10/09 08:01:29;;;;;;;18.63;8.03;;;;;;;9.62;100.00;96948.72;5042800;28;20221;-72
2022/10/09 08:03:56;;;;;;;15.97;7.10;;;;;;;9.65;100.00;96948.41;5042241;28;20216;-72
2022/10/09 08:06:23;;;;;;;15.03;7.50;;;;;;;9.63;100.00;96945.09;5042342;28;20692;-72
2022/10/09 08:08:50;;;;;;;14.93;7.63;;;;;;;9.72;100.00;96945.03;5042903;28;20208;-72
2022/10/09 08:11:18;;;;;;;14.13;7.93;;;;;;;9.66;100.00;96943.97;5042443;28;20622;-72
2022/10/09 08:13:46;;;;;;;13.97;7.20;;;;;;;9.78;100.00;96941.75;5041845;28;20205;-72
2022/10/09 08:16:14;;;;;;;20.63;7.67;;;;;;;9.85;100.00;96934.06;5042716;28;20586;-72
2022/10/09 08:18:41;;;;;;;12.47;6.27;;;;;;;9.87;100.00;96934.75;5046959;28;20544;-72
2022/10/09 08:21:10;;;;;;;14.23;6.97;;;;;;;9.84;100.00;96933.25;5046638;28;20236;-72
2022/10/09 08:23:37;;;;;;;16.03;7.10;;;;;;;9.84;100.00;96930.63;5046106;28;20201;-72
2022/10/09 08:26:05;;;;;;;18.50;7.07;;;;;;;9.93;100.00;96929.66;5046583;28;20213;-72
2022/10/09 08:28:31;;;;;;;12.13;6.50;;;;;;;9.93;100.00;96932.31;5046951;28;20216;-72
2022/10/09 08:30:58;;;;;;;15.53;7.30;;;;;;;9.94;100.00;96926.06;5046427;28;20376;-72
2022/10/09 08:33:25;;;;;;;15.70;6.33;;;;;;;10.14;100.00;96930.13;5046073;28;20220;-72
2022/10/09 08:35:53;;;;;;;18.50;6.90;;;;;;;10.19;100.00;96929.69;5046425;28;20209;-72
2022/10/09 08:38:19;;;;;;;15.10;7.73;;;;;;;10.06;100.00;96924.03;5046896;28;20223;-72
2022/10/09 08:40:51;;;;;;;13.90;6.43;;;;;;;10.27;100.00;96929.69;5046002;28;20225;-72
2022/10/09 08:43:23;;;;;;;18.17;6.53;;;;;;;10.48;100.00;96928.31;5046081;28;20235;-72
2022/10/09 08:45:51;;;;;;;19.17;6.70;;;;;;;10.54;100.00;96923.22;5046853;28;20424;-72
2022/10/09 08:48:21;;;;;;;13.67;6.70;;;;;;;10.65;100.00;96920.28;5046171;28;20587;-72
2022/10/09 08:50:53;;;;;;;11.70;5.93;;;;;;;10.81;100.00;96920.31;5046022;28;20229;-72
2022/10/09 08:53:30;;;;;;;10.43;5.60;;;;;;;10.94;100.00;96918.03;5046197;28;20604;-72
2022/10/09 08:55:59;;;;;;;10.70;5.53;;;;;;;10.93;100.00;96915.56;5045888;28;20681;-72
2022/10/09 08:58:31;;;;;;;9.07;5.23;;;;;;;11.23;100.00;96915.78;5045551;28;20201;-72
2022/10/09 09:01:04;;;;;;;11.20;5.07;;;;;;;11.26;100.00;96913.59;5046103;28;20221;-72
2022/10/09 09:03:57;;;;;;;10.03;5.10;;;;;;;11.51;100.00;96917.09;5045037;28;20197;-72
2022/10/09 09:06:37;;;;;;;12.47;5.20;;;;;;;11.68;100.00;96912.47;5045383;28;20202;-72
2022/10/09 09:09:14;;;;;;;11.33;4.57;;;;;;;11.70;100.00;96909.66;5045820;28;20209;-72
2022/10/09 09:11:49;;;;;;;9.77;4.80;;;;;;;11.78;100.00;96897.25;5045342;28;20221;-72
2022/10/09 09:14:30;;;;;;;10.97;4.40;;;;;;;11.86;100.00;96896.41;5045029;28;20216;-72
2022/10/09 09:17:03;;;;;;;9.43;4.47;;;;;;;11.79;100.00;96898.09;5046206;28;20578;-72
2022/10/09 09:19:48;;;;;;;8.93;4.47;;;;;;;12.14;100.00;96892.38;5045749;28;20205;-72
2022/10/09 09:22:17;;;;;;;10.73;4.43;;;;;;;12.01;100.00;96881.53;5045905;28;20221;-73
2022/10/09 09:24:48;;;;;;;9.97;4.43;;;;;;;12.01;100.00;96881.53;5045880;28;20665;-72
2022/10/09 09:27:18;;;;;;;9.03;4.23;;;;;;;12.09;100.00;96884.94;5046379;28;20605;-72
2022/10/09 09:29:50;;;;;;;10.90;4.40;;;;;;;12.21;100.00;96883.59;5046631;28;20194;-72
2022/10/09 09:32:21;;;;;;;10.23;3.83;;;;;;;12.16;100.00;96884.09;5045755;28;20236;-72
2022/10/09 09:34:48;;;;;;;10.77;3.97;;;;;;;12.12;100.00;96873.22;5046512;28;20217;-72
2022/10/09 09:37:16;;;;;;;6.53;3.33;;;;;;;12.22;100.00;96870.22;5045612;28;20209;-72
2022/10/09 09:39:43;;;;;;;5.53;3.00;;;;;;;12.48;100.00;96873.38;5046451;28;20197;-72
2022/10/09 09:42:16;;;;;;;10.53;2.57;;;;;;;12.56;100.00;96868.03;5045730;28;20244;-72
2022/10/09 09:44:47;;;;;;;11.40;3.35;;;;;;;12.59;100.00;96866.88;5046214;28;20204;-72
2022/10/09 09:47:19;;;;;;;4.73;2.97;;;;;;;12.64;100.00;96862.72;5045668;28;20205;-72
2022/10/09 09:49:54;;;;;;;6.13;2.63;;;;;;;12.67;100.00;96866.84;5045595;28;20503;-72
2022/10/09 09:52:23;;;;;;;10.07;3.10;;;;;;;12.74;100.00;96860.69;5045426;28;20228;-72
2022/10/09 09:54:50;;;;;;;6.03;2.63;;;;;;;12.71;100.00;96860.22;5046090;28;20216;-72
2022/10/09 09:57:27;;;;;;;3.42;2.25;;;;;;;12.72;100.00;96852.09;5046098;28;20205;-73
2022/10/09 09:59:53;;;;;;;8.73;2.70;;;;;;;12.74;100.00;96844.81;5045586;28;20205;-72
2022/10/09 10:02:22;;;;;;;3.80;2.50;;;;;;;12.89;100.00;96853.66;5045769;28;20221;-72
2022/10/09 10:04:51;;;;;;;4.03;2.30;;;;;;;13.01;100.00;96846.97;5045788;28;20217;-72
2022/10/09 10:07:32;;;;;;;4.67;2.40;;;;;;;13.10;96.62;96837.97;5045697;28;20220;-72
2022/10/09 10:10:06;;;;;;;5.60;2.13;;;;;;;13.04;96.62;96846.59;5044643;28;20216;-72
2022/10/09 10:12:33;;;;;;;3.95;2.20;;;;;;;12.94;98.97;96840.72;5044202;28;20196;-72
2022/10/09 10:14:59;;;;;;;4.13;2.30;;;;;;;13.08;96.81;96837.31;5045021;28;20208;-72
2022/10/09 10:17:29;;;;;;;4.03;2.05;;;;;;;13.25;97.67;96833.53;5044886;28;20215;-72
2022/10/09 10:19:56;;;;;;;11.03;2.47;;;;;;;13.23;98.13;96836.34;5044726;28;20404;-72
2022/10/09 10:22:24;;;;;;;6.07;2.10;;;;;;;13.40;94.71;96832.56;5044495;28;20220;-72
2022/10/09 10:24:56;;;;;;;3.03;2.00;;;;;;;13.41;95.23;96827.06;5044699;28;20212;-72
2022/10/09 10:27:27;;;;;;;6.38;2.30;;;;;;;13.49;93.38;96829.66;5045169;28;20201;-72
2022/10/09 10:29:56;;;;;;;5.95;2.20;;;;;;;13.64;94.54;96825.19;5045256;28;20225;-72
2022/10/09 10:32:31;;;;;;;3.53;2.08;;;;;;;13.92;92.23;96820.09;5044345;28;20225;-72
2022/10/09 10:35:02;;;;;;;5.32;1.92;;;;;;;13.98;91.06;96822.84;5044352;28;20303;-72
2022/10/09 10:37:33;;;;;;;4.68;2.00;;;;;;;14.00;90.11;96815.50;5044654;28;20676;-72
2022/10/09 10:40:07;;;;;;;4.18;2.03;;;;;;;14.07;88.88;96816.44;5044223;28;20579;-72
2022/10/09 10:42:40;;;;;;;4.65;2.20;;;;;;;13.97;87.38;96815.06;5043697;28;20198;-72
2022/10/09 10:45:14;;;;;;;3.47;1.67;;;;;;;14.04;87.03;96811.50;5044380;28;20572;-72
2022/10/09 10:47:45;;;;;;;3.10;1.70;;;;;;;14.07;87.96;96811.94;5044180;28;20288;-72
2022/10/09 10:50:13;;;;;;;7.50;2.20;;;;;;;14.05;88.71;96797.22;5044589;28;20517;-72
2022/10/09 10:52:52;;;;;;;8.35;2.10;;;;;;;14.02;87.43;96809.00;5043872;28;20237;-72
2022/10/09 10:55:33;;;;;;;5.50;1.80;;;;;;;14.17;86.62;96811.69;5044423;28;20201;-72
2022/10/09 10:58:09;;;;;;;3.53;2.10;;;;;;;14.39;84.67;96808.09;5044004;28;20212;-72
2022/10/09 11:00:42;;;;;;;2.72;1.92;;;;;;;14.16;83.47;96810.88;5043920;28;20225;-72
2022/10/09 11:03:33;;;;;;;5.18;1.90;;;;;;;14.38;83.83;96809.91;5043487;28;20220;-72
2022/10/09 11:06:07;;;;;;;3.05;1.95;;;;;;;14.41;83.11;96800.75;5043763;28;20652;-72
2022/10/09 11:08:48;;;;;;;5.50;2.10;;;;;;;14.62;83.67;96800.81;5043817;28;20596;-72
2022/10/09 11:11:22;;;;;;;7.13;2.30;;;;;;;14.65;87.74;96799.41;5043761;28;20236;-72
2022/10/09 11:13:59;;;;;;;4.82;2.20;;;;;;;14.69;84.09;96798.03;5043382;28;20205;-72
2022/10/09 11:16:40;;;;;;;6.90;2.42;;;;;;;14.87;84.30;96795.75;5044183;28;20205;-72
2022/10/09 11:19:30;;;;;;;3.30;2.25;;;;;;;14.96;84.78;96796.47;5043619;28;20509;-72
2022/10/09 11:22:02;;;;;;;4.55;2.30;;;;;;;14.71;84.96;96788.06;5040747;28;20217;-72
2022/10/09 11:24:57;;;;;;;7.78;2.50;;;;;;;14.68;85.82;96783.13;5043598;28;20245;-72
2022/10/09 11:27:28;;;;;;;7.65;2.80;;;;;;;14.74;86.75;96785.03;5043583;28;20449;-72
2022/10/09 11:29:58;;;;;;;6.72;2.40;;;;;;;14.76;90.12;96779.53;5044279;28;20208;-72
2022/10/09 11:32:32;;;;;;;6.40;2.92;;;;;;;14.96;85.48;96770.72;5043642;28;20221;-72
2022/10/09 11:35:03;;;;;;;4.20;2.53;;;;;;;14.78;85.90;96778.31;5044256;28;20220;-72
2022/10/09 11:37:34;;;;;;;6.05;2.58;;;;;;;14.82;85.44;96771.63;5044116;28;20207;-72
2022/10/09 11:40:04;;;;;;;5.97;2.33;;;;;;;14.60;84.52;96770.97;5043574;28;20212;-72